createdAt,value
2022-10-18T00:00:21.515Z,21.73
2022-10-18T00:02:48.614Z,21.07
2022-10-18T00:05:16.108Z,22.27
2022-10-18T00:07:43.212Z,22.17
2022-10-18T00:10:10.811Z,23.93
2022-10-18T00:12:38.650Z,22.20
2022-10-18T00:15:07.512Z,21.00
2022-10-18T00:17:35.923Z,20.23
2022-10-18T00:20:03.482Z,21.10
2022-10-18T00:22:30.758Z,19.97
2022-10-18T00:24:58.168Z,20.53
2022-10-18T00:27:25.344Z,22.03
2022-10-18T00:29:53.664Z,20.63
2022-10-18T00:32:20.929Z,20.27
2022-10-18T00:34:48.340Z,21.70
2022-10-18T00:37:15.751Z,19.63
2022-10-18T00:39:43.091Z,20.67
2022-10-18T00:42:17.874Z,18.00
2022-10-18T00:44:44.938Z,21.03
2022-10-18T00:47:14.219Z,17.70
2022-10-18T00:49:44.599Z,22.47
2022-10-18T00:52:24.327Z,17.90
2022-10-18T00:54:53.068Z,20.37
2022-10-18T00:57:20.636Z,24.10
2022-10-18T00:59:48.175Z,22.20
2022-10-18T01:02:18.276Z,21.33
2022-10-18T01:04:47.043Z,21.40
2022-10-18T01:07:40.126Z,20.93
2022-10-18T01:10:22.154Z,21.00
2022-10-18T01:13:01.230Z,21.17
2022-10-18T01:15:33.615Z,21.43
2022-10-18T01:18:14.894Z,21.40
2022-10-18T01:21:03.075Z,20.30
2022-10-18T01:23:39.239Z,20.60
2022-10-18T01:26:06.310Z,21.13
2022-10-18T01:29:18.390Z,21.27
2022-10-18T01:31:56.449Z,20.67
2022-10-18T01:34:30.242Z,18.13
2022-10-18T01:36:59.074Z,18.57
2022-10-18T01:39:36.671Z,18.07
2022-10-18T01:42:08.897Z,18.43
2022-10-18T01:44:38.323Z,20.57
2022-10-18T01:47:07.881Z,17.60
2022-10-18T01:49:35.212Z,16.17
2022-10-18T01:52:02.545Z,16.53
2022-10-18T01:54:42.270Z,18.37
2022-10-18T01:57:23.411Z,17.50
2022-10-18T02:00:13.122Z,18.33
2022-10-18T02:03:06.842Z,17.03
2022-10-18T02:05:43.078Z,16.73
2022-10-18T02:08:31.390Z,17.53
2022-10-18T02:11:07.927Z,17.13
2022-10-18T02:13:43.886Z,14.63
2022-10-18T02:16:25.987Z,13.87
2022-10-18T02:19:02.107Z,14.40
2022-10-18T02:21:30.523Z,14.77
2022-10-18T02:24:00.765Z,16.30
2022-10-18T02:26:28.111Z,17.10
2022-10-18T02:28:55.444Z,18.93
2022-10-18T02:31:31.021Z,20.00
2022-10-18T02:34:09.686Z,18.63
2022-10-18T02:36:58.887Z,18.30
2022-10-18T02:39:30.823Z,20.87
2022-10-18T02:41:58.518Z,19.50
2022-10-18T02:44:26.095Z,17.50
2022-10-18T02:46:53.517Z,16.40
2022-10-18T02:49:20.635Z,16.47
2022-10-18T02:51:47.704Z,15.00
2022-10-18T02:54:14.797Z,16.70
2022-10-18T02:56:41.924Z,18.20
2022-10-18T02:59:09.133Z,15.43
2022-10-18T03:01:36.587Z,17.00
2022-10-18T03:04:04.672Z,16.63
2022-10-18T03:06:33.044Z,16.40
2022-10-18T03:09:03.415Z,15.10
2022-10-18T03:11:30.538Z,12.70
2022-10-18T03:13:57.787Z,13.57
2022-10-18T03:16:25.156Z,16.87
2022-10-18T03:18:52.255Z,14.53
2022-10-18T03:21:19.451Z,14.50
2022-10-18T03:23:46.549Z,13.93
2022-10-18T03:26:13.647Z,16.90
2022-10-18T03:28:40.770Z,15.57
2022-10-18T03:31:08.026Z,14.87
2022-10-18T03:33:35.158Z,14.37
2022-10-18T03:36:02.282Z,13.80
2022-10-18T03:38:29.366Z,14.10
2022-10-18T03:40:56.546Z,14.17
2022-10-18T03:43:23.710Z,13.17
2022-10-18T03:45:52.388Z,13.57
2022-10-18T03:48:19.563Z,14.00
2022-10-18T03:50:46.714Z,12.60
2022-10-18T03:53:13.978Z,12.27
2022-10-18T03:55:41.458Z,15.80
2022-10-18T03:58:09.075Z,14.07
2022-10-18T04:00:36.224Z,19.30
2022-10-18T04:03:03.638Z,15.03
2022-10-18T04:05:31.155Z,18.43
2022-10-18T04:07:58.727Z,15.37
2022-10-18T04:10:26.427Z,16.53
2022-10-18T04:12:53.734Z,15.70
2022-10-18T04:15:20.987Z,14.57
2022-10-18T04:17:48.100Z,16.87
2022-10-18T04:20:15.336Z,14.77
2022-10-18T04:22:42.455Z,14.60
2022-10-18T04:25:09.711Z,14.73
2022-10-18T04:27:37.438Z,15.70
2022-10-18T04:30:05.078Z,15.80
2022-10-18T04:32:32.207Z,13.80
2022-10-18T04:34:59.360Z,14.40
2022-10-18T04:37:26.520Z,14.20
2022-10-18T04:39:53.935Z,15.30
2022-10-18T04:42:22.130Z,13.07
2022-10-18T04:44:49.401Z,12.57
2022-10-18T04:47:17.363Z,12.10
2022-10-18T04:49:44.695Z,14.20
2022-10-18T04:52:11.989Z,14.60
2022-10-18T04:54:39.177Z,12.80
2022-10-18T04:57:06.312Z,14.67
2022-10-18T04:59:33.460Z,13.87
2022-10-18T05:02:00.691Z,13.53
2022-10-18T05:04:27.867Z,12.27
2022-10-18T05:06:55.018Z,12.73
2022-10-18T05:09:24.647Z,12.70
2022-10-18T05:11:51.938Z,14.30
2022-10-18T05:14:19.149Z,12.00
2022-10-18T05:16:46.327Z,13.17
2022-10-18T05:19:13.473Z,12.57
2022-10-18T05:21:40.668Z,11.60
2022-10-18T05:24:07.856Z,11.53
2022-10-18T05:26:35.000Z,11.40
2022-10-18T05:29:02.550Z,12.13
2022-10-18T05:31:29.822Z,14.50
2022-10-18T05:33:56.954Z,15.37
2022-10-18T05:36:26.074Z,16.27
2022-10-18T05:38:53.691Z,18.53
2022-10-18T05:41:21.142Z,17.10
2022-10-18T05:43:48.378Z,14.90
2022-10-18T05:46:15.945Z,15.70
2022-10-18T05:48:44.676Z,15.20
2022-10-18T05:51:11.945Z,15.73
2022-10-18T05:53:39.114Z,13.50
2022-10-18T05:56:07.433Z,14.00
2022-10-18T05:58:35.205Z,13.50
2022-10-18T06:01:04.288Z,11.90
2022-10-18T06:03:31.746Z,12.30
2022-10-18T06:06:07.946Z,10.07
2022-10-18T06:08:35.907Z,12.50
2022-10-18T06:11:21.519Z,12.60
2022-10-18T06:13:50.611Z,11.63
2022-10-18T06:16:20.320Z,11.77
2022-10-18T06:18:52.573Z,12.20
2022-10-18T06:21:20.799Z,14.50
2022-10-18T06:23:52.744Z,15.77
2022-10-18T06:26:20.845Z,16.67
2022-10-18T06:28:48.030Z,15.70
2022-10-18T06:31:15.469Z,17.10
2022-10-18T06:33:42.823Z,16.83
2022-10-18T06:36:17.134Z,17.07
2022-10-18T06:38:44.550Z,15.40
2022-10-18T06:41:12.000Z,15.23
2022-10-18T06:43:39.179Z,15.47
2022-10-18T06:46:08.296Z,15.40
2022-10-18T06:48:36.592Z,15.77
2022-10-18T06:51:05.937Z,13.90
2022-10-18T06:53:44.066Z,14.50
2022-10-18T06:56:20.600Z,16.30
2022-10-18T06:58:47.747Z,17.00
2022-10-18T07:01:17.029Z,16.60
2022-10-18T07:03:45.253Z,17.10
2022-10-18T07:06:13.814Z,18.50
2022-10-18T07:08:41.308Z,18.10
2022-10-18T07:11:10.926Z,18.87
2022-10-18T07:13:38.028Z,18.00
2022-10-18T07:16:08.629Z,17.50
2022-10-18T07:18:39.180Z,16.80
2022-10-18T07:21:08.909Z,18.10
2022-10-18T07:23:37.811Z,16.73
2022-10-18T07:26:16.565Z,17.47
2022-10-18T07:28:46.054Z,18.30
2022-10-18T07:31:13.939Z,17.20
2022-10-18T07:33:43.013Z,16.00
2022-10-18T07:36:11.994Z,17.10
2022-10-18T07:38:39.404Z,17.40
2022-10-18T07:41:08.301Z,17.43
2022-10-18T07:43:36.080Z,16.67
2022-10-18T07:46:04.847Z,16.60
2022-10-18T07:48:32.401Z,17.97
2022-10-18T07:51:00.789Z,18.63
2022-10-18T07:53:28.867Z,18.00
2022-10-18T07:56:07.123Z,18.63
2022-10-18T07:58:36.567Z,19.20
2022-10-18T08:01:05.825Z,17.33
2022-10-18T08:03:33.157Z,18.57
2022-10-18T08:06:00.627Z,18.07
2022-10-18T08:08:28.985Z,17.53
2022-10-18T08:11:01.476Z,16.47
2022-10-18T08:13:29.083Z,16.93
2022-10-18T08:16:12.243Z,16.50
2022-10-18T08:18:40.363Z,17.23
2022-10-18T08:21:09.597Z,16.23
2022-10-18T08:23:37.429Z,18.33
2022-10-18T08:26:10.131Z,16.30
2022-10-18T08:28:37.732Z,15.17
2022-10-18T08:31:11.379Z,18.80
2022-10-18T08:33:39.800Z,17.67
2022-10-18T08:36:10.163Z,18.43
2022-10-18T08:38:39.271Z,17.50
2022-10-18T08:41:39.435Z,18.60
2022-10-18T08:44:23.311Z,18.50
2022-10-18T08:47:14.964Z,15.23
2022-10-18T08:49:54.994Z,13.47
2022-10-18T08:52:31.046Z,15.07
2022-10-18T08:55:21.483Z,13.10
2022-10-18T08:57:50.903Z,12.13
2022-10-18T09:00:21.526Z,13.17
2022-10-18T09:03:13.358Z,12.20
2022-10-18T09:05:51.801Z,12.20
2022-10-18T09:08:38.857Z,11.70
2022-10-18T09:11:14.889Z,11.87
2022-10-18T09:14:16.139Z,11.20
2022-10-18T09:16:50.693Z,10.97
2022-10-18T09:19:43.284Z,9.57
2022-10-18T09:22:19.076Z,11.20
2022-10-18T09:24:50.627Z,10.73
2022-10-18T09:27:19.711Z,10.93
2022-10-18T09:30:15.248Z,10.70
2022-10-18T09:33:17.646Z,10.80
2022-10-18T09:35:54.423Z,11.13
2022-10-18T09:41:02.339Z,11.00
2022-10-18T09:43:58.923Z,12.80
2022-10-18T09:46:31.400Z,12.07
2022-10-18T09:49:03.124Z,13.30
2022-10-18T09:51:35.479Z,12.30
2022-10-18T09:54:14.417Z,12.10
2022-10-18T09:56:47.629Z,11.73
2022-10-18T09:59:33.949Z,11.00
2022-10-18T10:02:01.134Z,14.10
2022-10-18T10:04:28.699Z,13.27
2022-10-18T10:06:59.138Z,17.13
2022-10-18T10:09:36.609Z,15.17
2022-10-18T10:12:03.915Z,11.07
2022-10-18T10:14:42.605Z,10.33
2022-10-18T10:17:26.283Z,10.67
2022-10-18T10:20:14.353Z,10.13
2022-10-18T10:22:42.914Z,10.80
2022-10-18T10:25:23.355Z,9.97
2022-10-18T10:27:50.948Z,10.10
2022-10-18T10:30:24.255Z,8.97
2022-10-18T10:32:52.526Z,10.40
2022-10-18T10:38:27.195Z,9.90
2022-10-18T10:40:55.228Z,9.87
2022-10-18T10:43:38.750Z,9.33
2022-10-18T10:46:19.253Z,9.97
2022-10-18T10:49:09.645Z,9.83
2022-10-18T10:51:42.152Z,9.47
2022-10-18T10:54:22.081Z,10.13
2022-10-18T10:57:00.315Z,9.67
2022-10-18T11:02:26.147Z,9.53
2022-10-18T11:04:55.499Z,9.37
2022-10-18T11:07:43.431Z,9.83
2022-10-18T11:10:10.511Z,9.57
2022-10-18T11:12:48.239Z,9.40
2022-10-18T11:15:28.731Z,8.43
2022-10-18T11:17:55.862Z,9.37
2022-10-18T11:20:35.230Z,9.20
2022-10-18T11:23:12.524Z,9.20
2022-10-18T11:25:51.499Z,9.13
2022-10-18T11:28:36.796Z,9.17
2022-10-18T11:31:25.819Z,9.73
2022-10-18T11:34:10.961Z,8.93
2022-10-18T11:36:56.109Z,9.20
2022-10-18T11:39:39.239Z,9.40
2022-10-18T11:42:29.952Z,9.93
2022-10-18T11:45:18.150Z,8.90
2022-10-18T11:48:04.058Z,8.80
2022-10-18T11:50:46.045Z,10.57
2022-10-18T11:53:22.111Z,9.93
2022-10-18T11:56:07.110Z,9.37
2022-10-18T11:58:48.872Z,9.70
2022-10-18T12:01:43.983Z,9.60
2022-10-18T12:04:20.938Z,9.87
2022-10-18T12:06:51.210Z,10.70
2022-10-18T12:09:36.382Z,8.90
2022-10-18T12:12:16.540Z,9.70
2022-10-18T12:14:50.167Z,10.07
2022-10-18T12:17:43.968Z,9.60
2022-10-18T12:20:31.959Z,9.70
2022-10-18T12:23:18.211Z,10.20
2022-10-18T12:25:59.362Z,10.00
2022-10-18T12:29:07.791Z,9.40
2022-10-18T12:31:44.912Z,9.73
2022-10-18T12:34:43.764Z,9.23
2022-10-18T12:37:48.636Z,10.07
2022-10-18T12:40:23.605Z,9.40
2022-10-18T12:42:53.144Z,10.10
2022-10-18T12:45:23.314Z,9.47
2022-10-18T12:47:50.788Z,8.67
2022-10-18T12:50:39.719Z,9.87
2022-10-18T12:53:27.899Z,9.87
2022-10-18T12:55:56.088Z,10.00
2022-10-18T12:58:31.983Z,10.50
2022-10-18T13:01:02.351Z,9.10
2022-10-18T13:03:55.461Z,9.40
2022-10-18T13:06:23.773Z,9.43
2022-10-18T13:09:17.407Z,8.80
2022-10-18T13:11:44.602Z,9.37
2022-10-18T13:15:12.684Z,9.50
2022-10-18T13:17:55.799Z,9.57
2022-10-18T13:20:44.100Z,9.90
2022-10-18T13:23:38.146Z,9.23
2022-10-18T13:26:39.094Z,9.90
2022-10-18T13:29:56.117Z,10.10
2022-10-18T13:32:39.619Z,10.17
2022-10-18T13:35:45.429Z,10.70
2022-10-18T13:38:40.773Z,9.27
2022-10-18T13:41:20.261Z,9.67
2022-10-18T13:43:53.493Z,9.80
2022-10-18T13:46:32.786Z,9.40
2022-10-18T13:49:01.155Z,10.40
2022-10-18T13:51:46.131Z,9.97
2022-10-18T13:54:47.448Z,9.20
2022-10-18T13:57:38.732Z,9.80
2022-10-18T14:00:08.703Z,9.77
2022-10-18T14:02:59.620Z,9.50
2022-10-18T14:05:42.499Z,10.30
2022-10-18T14:08:28.936Z,10.10
2022-10-18T14:11:14.114Z,9.87
2022-10-18T14:13:48.254Z,11.07
2022-10-18T14:16:28.370Z,10.20
2022-10-18T14:19:08.579Z,11.60
2022-10-18T14:21:40.370Z,11.50
2022-10-18T14:24:21.628Z,11.57
2022-10-18T14:27:08.701Z,11.30
2022-10-18T14:29:35.930Z,11.70
2022-10-18T14:32:03.052Z,11.17
2022-10-18T14:34:30.870Z,11.20
2022-10-18T14:36:58.031Z,12.37
2022-10-18T14:39:30.794Z,11.53
2022-10-18T14:41:58.608Z,11.20
2022-10-18T14:44:28.362Z,11.63
2022-10-18T14:47:13.941Z,12.67
2022-10-18T14:49:45.694Z,11.87
2022-10-18T14:52:21.156Z,12.10
2022-10-18T14:54:50.231Z,10.97
2022-10-18T14:57:23.499Z,12.10
2022-10-18T14:59:58.259Z,12.00
2022-10-18T15:02:27.922Z,12.63
2022-10-18T15:05:08.079Z,12.03
2022-10-18T15:07:35.949Z,13.30
2022-10-18T15:10:06.334Z,11.90
2022-10-18T15:12:40.982Z,13.17
2022-10-18T15:15:21.597Z,15.40
2022-10-18T15:17:50.093Z,13.60
2022-10-18T15:20:25.004Z,13.80
2022-10-18T15:22:53.199Z,12.47
2022-10-18T15:25:35.906Z,11.30
2022-10-18T15:28:03.135Z,11.23
2022-10-18T15:30:36.299Z,10.13
2022-10-18T15:33:05.311Z,11.43
2022-10-18T15:35:34.715Z,12.80
2022-10-18T15:38:31.903Z,12.40
2022-10-18T15:40:59.411Z,11.87
2022-10-18T15:43:26.507Z,11.57
2022-10-18T15:46:01.840Z,11.47
2022-10-18T15:48:37.169Z,12.30
2022-10-18T15:51:07.120Z,11.10
2022-10-18T15:53:52.262Z,12.50
2022-10-18T15:56:25.231Z,12.70
2022-10-18T15:58:52.487Z,12.50
2022-10-18T16:01:57.614Z,12.10
2022-10-18T16:04:27.784Z,12.27
2022-10-18T16:06:56.080Z,12.00
2022-10-18T16:09:27.072Z,13.50
2022-10-18T16:11:57.209Z,11.80
2022-10-18T16:14:26.008Z,12.63
2022-10-18T16:17:00.655Z,12.20
2022-10-18T16:19:27.898Z,13.30
2022-10-18T16:21:55.241Z,13.87
2022-10-18T16:24:23.597Z,13.70
2022-10-18T16:26:51.032Z,13.43
2022-10-18T16:29:24.357Z,13.33
2022-10-18T16:31:53.565Z,12.57
2022-10-18T16:34:20.829Z,13.00
2022-10-18T16:36:47.986Z,13.67
2022-10-18T16:39:18.251Z,14.53
2022-10-18T16:41:46.451Z,13.83
2022-10-18T16:44:14.270Z,14.33
2022-10-18T16:46:42.022Z,13.30
2022-10-18T16:49:23.828Z,12.97
2022-10-18T16:51:55.235Z,13.77
2022-10-18T16:54:23.516Z,14.27
2022-10-18T16:56:51.186Z,12.90
2022-10-18T16:59:30.400Z,13.77
2022-10-18T17:01:57.747Z,14.57
2022-10-18T17:04:25.023Z,13.50
2022-10-18T17:06:54.363Z,14.73
2022-10-18T17:09:21.727Z,14.23
2022-10-18T17:11:49.634Z,13.90
2022-10-18T17:14:16.730Z,13.47
2022-10-18T17:16:46.700Z,14.10
2022-10-18T17:19:17.860Z,14.47
2022-10-18T17:21:44.973Z,12.93
2022-10-18T17:24:12.327Z,14.23
2022-10-18T17:26:39.491Z,15.23
2022-10-18T17:29:08.428Z,15.37
2022-10-18T17:31:35.922Z,16.57
2022-10-18T17:34:03.759Z,15.60
2022-10-18T17:36:32.543Z,15.93
2022-10-18T17:38:59.694Z,14.90
2022-10-18T17:41:27.294Z,14.50
2022-10-18T17:43:54.613Z,15.20
2022-10-18T17:46:23.667Z,15.10
2022-10-18T17:48:50.865Z,14.23
2022-10-18T17:51:18.613Z,13.80
2022-10-18T17:53:46.102Z,15.00
2022-10-18T17:56:13.930Z,15.30
2022-10-18T17:58:43.538Z,15.40
2022-10-18T18:01:15.193Z,13.30
2022-10-18T18:03:42.349Z,15.20
2022-10-18T18:06:18.497Z,16.67
2022-10-18T18:08:46.273Z,15.60
2022-10-18T18:11:13.973Z,15.60
2022-10-18T18:13:41.395Z,15.40
2022-10-18T18:16:17.696Z,16.00
2022-10-18T18:18:45.729Z,14.47
2022-10-18T18:21:13.325Z,15.30
2022-10-18T18:23:40.726Z,14.77
2022-10-18T18:26:07.923Z,14.53
2022-10-18T18:28:36.341Z,14.93
2022-10-18T18:31:11.965Z,15.57
2022-10-18T18:33:39.237Z,16.10
2022-10-18T18:36:07.009Z,14.80
2022-10-18T18:38:36.456Z,15.20
2022-10-18T18:41:18.495Z,15.43
2022-10-18T18:43:50.205Z,14.20
2022-10-18T18:46:17.351Z,14.67
2022-10-18T18:48:44.560Z,15.63
2022-10-18T18:51:18.060Z,14.07
2022-10-18T18:53:46.502Z,14.90
2022-10-18T18:56:25.161Z,14.73
2022-10-18T18:58:53.585Z,15.23
2022-10-18T19:01:23.402Z,16.50
2022-10-18T19:03:53.475Z,15.57
2022-10-18T19:06:27.175Z,15.47
2022-10-18T19:09:00.259Z,16.37
2022-10-18T19:11:29.385Z,15.60
2022-10-18T19:13:56.767Z,14.40
2022-10-18T19:16:29.803Z,14.00
2022-10-18T19:19:01.227Z,16.07
2022-10-18T19:21:31.328Z,14.07
2022-10-18T19:23:59.589Z,13.70
2022-10-18T19:26:32.350Z,15.07
2022-10-18T19:29:14.615Z,14.17
2022-10-18T19:31:42.848Z,12.50
2022-10-18T19:34:12.228Z,13.17
2022-10-18T19:36:40.631Z,11.60
2022-10-18T19:39:09.943Z,11.17
2022-10-18T19:41:37.191Z,11.47
2022-10-18T19:44:04.505Z,11.57
2022-10-18T19:46:31.686Z,12.70
2022-10-18T19:48:58.949Z,13.83
2022-10-18T19:51:28.375Z,13.63
2022-10-18T19:53:57.223Z,13.07
2022-10-18T19:56:26.967Z,14.80
2022-10-18T19:58:55.467Z,14.10
2022-10-18T20:01:22.828Z,14.43
2022-10-18T20:03:50.072Z,13.83
2022-10-18T20:06:17.420Z,13.73
2022-10-18T20:08:44.658Z,14.27
2022-10-18T20:11:14.595Z,14.67
2022-10-18T20:13:41.975Z,12.90
2022-10-18T20:16:11.175Z,13.90
2022-10-18T20:18:38.611Z,13.53
2022-10-18T20:21:10.907Z,13.57
2022-10-18T20:23:39.911Z,13.20
2022-10-18T20:26:20.448Z,11.43
2022-10-18T20:28:55.733Z,13.43
2022-10-18T20:31:25.938Z,13.67
2022-10-18T20:34:01.454Z,12.30
2022-10-18T20:36:31.015Z,14.10
2022-10-18T20:38:58.707Z,12.90
2022-10-18T20:41:31.495Z,12.10
2022-10-18T20:44:00.943Z,13.47
2022-10-18T20:46:31.794Z,10.37
2022-10-18T20:48:59.163Z,9.77
2022-10-18T20:51:26.532Z,8.70
2022-10-18T20:53:53.837Z,8.63
2022-10-18T20:56:25.241Z,7.67
2022-10-18T20:58:55.747Z,6.73
2022-10-18T21:01:30.200Z,9.77
2022-10-18T21:04:00.407Z,9.20
2022-10-18T21:06:32.900Z,8.97
2022-10-18T21:09:20.272Z,10.50
2022-10-18T21:11:50.130Z,11.00
2022-10-18T21:14:19.592Z,9.30
2022-10-18T21:16:47.827Z,12.17
2022-10-18T21:19:26.394Z,11.47
2022-10-18T21:21:57.769Z,11.53
2022-10-18T21:24:26.134Z,12.20
2022-10-18T21:26:54.560Z,12.17
2022-10-18T21:29:22.911Z,11.20
2022-10-18T21:31:54.094Z,9.97
2022-10-18T21:34:21.550Z,8.00
2022-10-18T21:36:48.671Z,7.60
2022-10-18T21:39:19.159Z,8.83
2022-10-18T21:41:46.535Z,10.37
2022-10-18T21:44:14.443Z,10.33
2022-10-18T21:46:43.117Z,10.07
2022-10-18T21:49:10.983Z,10.57
2022-10-18T21:51:39.187Z,9.63
2022-10-18T21:54:10.796Z,10.70
2022-10-18T21:56:38.133Z,9.20
2022-10-18T21:59:05.695Z,10.60
2022-10-18T22:01:36.228Z,10.10
2022-10-18T22:04:06.144Z,9.80
2022-10-18T22:09:08.439Z,9.90
2022-10-18T22:11:41.430Z,11.07
2022-10-18T22:14:08.643Z,10.00
2022-10-18T22:16:35.892Z,9.60
2022-10-18T22:19:05.024Z,8.70
2022-10-18T22:21:32.541Z,6.77
2022-10-18T22:24:03.207Z,7.60
2022-10-18T22:26:36.026Z,6.93
2022-10-18T22:29:11.768Z,6.63
2022-10-18T22:31:42.014Z,6.77
2022-10-18T22:34:13.355Z,7.77
2022-10-18T22:36:40.583Z,6.40
2022-10-18T22:39:08.140Z,7.20
2022-10-18T22:41:35.951Z,8.60
2022-10-18T22:44:04.148Z,8.20
2022-10-18T22:46:32.594Z,7.97
2022-10-18T22:49:00.036Z,7.50
2022-10-18T22:51:27.359Z,9.13
2022-10-18T22:53:54.603Z,8.30
2022-10-18T22:56:23.204Z,7.50
2022-10-18T22:58:50.794Z,6.77
2022-10-18T23:01:21.121Z,6.10
2022-10-18T23:03:53.459Z,6.03
2022-10-18T23:06:28.043Z,6.13
2022-10-18T23:08:57.287Z,7.97
2022-10-18T23:11:25.765Z,7.53
2022-10-18T23:13:53.369Z,7.67
2022-10-18T23:16:20.999Z,5.90
2022-10-18T23:18:52.766Z,6.70
2022-10-18T23:21:21.086Z,6.87
2022-10-18T23:23:48.255Z,6.50
2022-10-18T23:26:18.402Z,6.63
2022-10-18T23:28:47.789Z,6.93
2022-10-18T23:31:30.379Z,6.20
2022-10-18T23:34:01.684Z,6.60
2022-10-18T23:36:29.725Z,6.07
2022-10-18T23:38:57.230Z,6.40
2022-10-18T23:41:24.734Z,5.50
2022-10-18T23:43:52.055Z,6.57
2022-10-18T23:46:19.567Z,5.83
2022-10-18T23:48:47.404Z,5.40
2022-10-18T23:51:15.208Z,6.00
2022-10-18T23:53:42.618Z,6.20
2022-10-18T23:56:12.734Z,5.97
2022-10-18T23:58:40.866Z,6.20
